Angelo Coast Range Reserve, California Weather observations

Data are for 10 minute period ending at time listed.
 Day   Time   Solar   Ave.   Ave.  Ave.  Vector  Max.   Baro.   Total    
  of    of     Rad.   Air    Rel.  Wind   Wind   Wind  Press.  Precip.   
Year   Day            Temp.  Hum.  Speed  Dir.   Gust                    
2017   (PST)  Kw/m2    F      %     mph   deg.    mph    mb.     in.     
-------------------------------------------------------------------------
  22   13:20   0.06   42.2    90    2.7   129     8.6   953.4    0.00 
  22   13:30   0.05   41.8    92    4.8   149    13.2   953.3    0.01 
  22   13:40   0.03   40.4    92    3.0   123     9.8   953.4    0.02 
  22   13:50   0.01   39.2    94    4.7   131     9.2   953.8    0.05 
  22   14:00   0.01   38.2    95    4.2   112     7.8   954.0    0.05 
  22   14:10   0.01   37.1    94    3.0   153     9.1   954.0    0.03 
  22   14:20   0.01   36.5    96    0.8   113     2.4   954.0    0.03 
  22   14:30   0.02   35.9    97    0.5   116     1.8   953.9    0.03 
  22   14:40   0.01   35.5    98    0.5   160     2.4   953.9    0.03 
  22   14:50   0.01   34.9    97    1.9   168     4.1   953.8    0.03 
  22   15:00   0.01   34.4    96    0.7   252     2.3   953.9    0.03 
  22   15:10   0.01   33.9    96    0.5    24     1.5   953.8    0.02 
  22   15:20   0.01   33.4    97    0.1     2     0.9   953.9    0.00 
  22   15:30   0.01   32.7    98    0.0     0     0.0   953.9    0.00 
  22   15:40   0.00   32.4    98    0.0     0     0.0   954.0    0.00 
  22   15:50   0.01   32.2    98    0.0     0     0.0   953.8    0.00 
  22   16:00   0.01   32.2    99    0.0     0     0.0   953.6    0.01 
  22   16:10   0.01   32.2    99    0.0     0     0.0   953.5    0.00 
  22   16:20   0.01   32.5    99    0.0     0     0.0   953.4    0.01 
  22   16:30   0.01   32.6    99    0.0     0     0.0   953.5    0.01 
  22   16:40   0.01   32.6    99    0.0     0     0.0   953.5    0.01 
  22   16:50   0.01   32.6   100    0.0     0     0.0   953.3    0.00 
  22   17:00   0.01   32.6   100    1.1   120     2.4   953.2    0.01 
  22   17:10   0.01   32.7   100    0.5   329     2.1   953.0    0.00 
  22   17:20   0.00   32.7   100    0.0     0     0.0   953.0    0.01 
  22   17:30   0.00   32.7   100    1.0   347     1.7   953.0    0.00 
  22   17:40   0.00   32.8   100    0.5    62     1.5   953.2    0.01 
  22   17:50   0.00   32.8   100    0.0     0     0.0   953.4    0.00 
  22   18:00   0.00   33.0   100    0.0     0     0.0   953.6    0.00 
  22   18:10   0.00   32.9   100    0.0     0     0.0   953.6    0.00 
  22   18:20   0.00   32.9   100    0.0     0     0.0   953.6    0.01 
  22   18:30   0.00   32.8   100    0.7    13     1.5   953.6    0.00 
  22   18:40   0.00   32.9   100    0.0     0     0.0   953.5    0.00 
  22   18:50   0.00   32.9   100    0.0     0     0.0   953.5    0.00 
  22   19:00   0.00   32.8   100    0.1    19     1.2   953.5    0.00 
  22   19:10   0.00   32.8   100    0.0     0     0.0   953.5    0.00 
  22   19:20   0.00   32.8   100    0.0     0     0.0   953.5    0.00 
  22   19:30   0.00   32.8   100    0.0    12     0.4   953.5    0.00 
  22   19:40   0.00   32.9   100    0.0     0     0.0   953.5    0.00 
  22   19:50   0.00   32.7   100    0.1    12     1.1   953.5    0.00 
  22   20:00   0.00   32.8   100    0.1    12     0.9   953.6    0.01 
  22   20:10   0.00   33.0   100    1.2   148     2.6   953.8    0.00 
  22   20:20   0.00   33.0   100    0.4     4     2.6   954.0    0.01 
  22   20:30   0.00   32.7   100    0.4   291     1.9   954.0    0.01 
  22   20:40   0.00   32.7   100    0.5    74     1.5   953.9    0.01 
  22   20:50   0.00   32.6   100    0.6   358     1.4   954.0    0.01 
  22   21:00   0.00   32.6   100    0.5   159     2.0   954.2    0.01 
  22   21:10   0.00   32.6   100    0.3   308     1.4   954.1    0.02 
  22   21:20   0.00   32.5   100    0.3    67     1.2   954.0    0.01 
  22   21:30   0.00   32.5   100    0.1   334     0.7   954.2    0.00 
  22   21:40   0.00   32.6   100    0.4   313     1.7   954.3    0.01 
  22   21:50   0.00   32.6   100    0.5   143     1.6   954.3    0.00 
  22   22:00   0.00   32.6   100    0.1   355     1.0   954.3    0.00 
  22   22:10   0.00   32.7   100    0.1    72     1.2   954.3    0.00 
  22   22:20   0.00   32.8   100    0.3    27     1.4   954.3    0.00 
  22   22:30   0.00   32.9   100    0.3    70     1.7   954.5    0.01 
  22   22:40   0.00   33.1   100    1.0   156     2.2   954.6    0.00 
  22   22:50   0.00   33.1   100    1.9     9     3.1   954.7    0.00 
  22   23:00   0.00   33.2   100    0.7    30     2.7   954.8    0.00 
  22   23:10   0.00   33.4   100    0.3    28     1.8   954.9    0.00 
  22   23:20   0.00   33.4   100    0.5    31     1.8   954.9    0.01 
  22   23:30   0.00   33.4   100    0.1    51     1.2   954.9    0.02 
  22   23:40   0.00   33.5   100    0.2    52     1.0   955.0    0.01 
  22   23:50   0.00   33.5   100    0.3    64     1.7   955.0    0.01 
  23    0:00   0.00   33.6   100    0.0     0     0.0   954.9    0.00 
  23    0:10   0.00   33.6   100    0.0     0     0.0   954.9    0.00 
  23    0:20   0.00   33.6   100    0.5    16     2.0   954.9    0.00 
  23    0:30   0.00   33.6   100    0.1   355     0.5   954.8    0.01 
  23    0:40   0.00   33.5   100    0.4     4     1.3   954.8    0.00 
  23    0:50   0.00   33.5   100    0.1    86     1.2   954.8    0.00 
  23    1:00   0.00   33.6   100    0.0    35     1.2   954.7    0.01 
  23    1:10   0.00   33.6   100    0.3   346     1.1   954.6    0.00 
  23    1:20   0.00   33.7   100    0.0     0     0.0   954.6    0.00 
  23    1:30   0.00   33.7   100    0.5    44     1.5   954.7    0.01 
  23    1:40   0.00   33.8   100    0.9   174     2.6   954.8    0.01 
  23    1:50   0.00   34.0   100    0.8   102     2.3   955.1    0.02 
  23    2:00   0.00   33.7   100    1.3    15     3.1   955.3    0.01 
  23    2:10   0.00   33.5   100    0.5   325     1.8   955.3    0.01 
  23    2:20   0.00   33.6   100    0.2    35     1.7   955.2    0.00 
  23    2:30   0.00   33.7   100    1.2   160     2.3   955.3    0.00 
  23    2:40   0.00   33.8   100    0.7    39     2.1   955.4    0.01 
  23    2:50   0.00   33.7   100    0.4    26     1.6   955.5    0.00 
  23    3:00   0.00   33.8   100    0.3    31     1.3   955.4    0.01 
  23    3:10   0.00   33.8   100    0.1    30     0.9   955.5    0.00 
  23    3:20   0.00   33.9   100    0.7    74     1.7   955.6    0.01 
  23    3:30   0.00   33.8   100    0.8     9     2.3   955.6    0.01 
  23    3:40   0.00   33.9   100    0.2    32     1.0   955.6    0.00 
  23    3:50   0.00   33.9   100    0.4    36     1.4   955.6    0.00 
  23    4:00   0.00   33.9   100    0.5    51     1.7   955.7    0.01 
  23    4:10   0.00   33.9   100    0.1    39     0.9   955.6    0.00 
  23    4:20   0.00   34.0   100    0.2   347     1.3   955.6    0.00 
  23    4:30   0.00   34.0   100    0.3     6     1.2   955.7    0.00 
  23    4:40   0.00   34.1   100    0.3    82     1.6   955.9    0.02 
  23    4:50   0.00   34.0   100    0.4    33     1.5   955.9    0.00 
  23    5:00   0.00   34.0   100    0.0     0     0.0   956.1    0.01 
  23    5:10   0.00   34.0   100    0.0    39     0.7   956.1    0.00 
  23    5:20   0.00   34.0   100    0.2    18     0.8   956.1    0.01 
  23    5:30   0.00   34.0   100    0.2   141     1.4   956.1    0.00 
  23    5:40   0.00   34.0   100    0.6    30     2.3   956.1    0.00 
  23    5:50   0.00   34.0   100    0.2    20     1.5   956.2    0.00 
  23    6:00   0.00   34.2   100    0.0     0     0.0   956.4    0.01 
  23    6:10   0.00   34.2   100    0.1    68     1.1   956.7    0.00 
  23    6:20   0.00   34.3   100    0.7    31     1.7   956.8    0.00 
  23    6:30   0.00   34.2   100    0.5    31     1.3   957.0    0.00 
  23    6:40   0.00   34.2   100    0.0     0     0.0   957.0    0.00 
  23    6:50   0.00   34.2   100    0.0    51     0.9   957.0    0.01 
  23    7:00   0.00   34.2   100    0.4    42     1.5   956.9    0.00 
  23    7:10   0.00   34.1   100    0.7    81     1.8   956.9    0.00 
  23    7:20   0.00   34.1   100    0.2    96     1.2   957.1    0.00 
  23    7:30   0.00   34.1   100    0.9   170     1.8   957.3    0.00 
  23    7:40   0.00   34.2   100    0.1   151     1.2   957.4    0.00 
  23    7:50   0.00   34.2   100    1.1   330     1.8   957.6    0.00 
  23    8:00   0.00   34.2   100    0.6    26     1.3   957.7    0.00 
  23    8:10   0.01   34.3   100    0.0    51     0.5   957.8    0.00 
  23    8:20   0.01   34.4   100    0.9    51     2.0   957.9    0.00 
  23    8:30   0.02   34.5   100    0.1    35     0.9   958.1    0.00 
  23    8:40   0.05   34.9   100    0.1    35     1.0   958.2    0.00 
  23    8:50   0.07   35.1   100    0.0     0     0.0   958.3    0.00 
  23    9:00   0.08   35.6    99    0.0     0     0.0   958.4    0.00 
  23    9:10   0.11   36.1    99    0.2   360     1.3   958.5    0.00 
  23    9:20   0.09   36.4    98    0.4   128     1.9   958.7    0.00 
  23    9:30   0.12   36.4    97    0.4   147     1.5   958.8    0.00 
  23    9:40   0.08   37.1    96    0.1   111     1.0   958.9    0.00 
  23    9:50   0.04   37.5    96    0.0     0     0.0   959.0    0.00 
  23   10:00   0.06   37.3    96    0.2    27     1.4   959.1    0.01 
  23   10:10   0.09   37.2    96    0.6   352     1.5   959.1    0.00 
  23   10:20   0.13   37.6    97    1.2   311     3.2   959.1    0.00 
  23   10:30   0.10   37.8    95    0.4    99     1.9   959.2    0.00 
  23   10:40   0.09   37.5    94    2.0    72     4.3   959.3    0.00 
  23   10:50   0.17   37.7    95    1.4    80     2.5   959.3    0.00 
  23   11:00   0.17   38.3    95    1.1    17     2.4   959.3    0.00 
  23   11:10   0.39   39.2    94    1.1    61     2.2   959.2    0.00 
  23   11:20   0.35   40.4    91    2.0   305     4.8   959.0    0.00 
  23   11:30   0.14   39.9    93    2.2   336     5.3   959.1    0.00 
  23   11:40   0.14   39.5    94    1.7   343     4.5   959.0    0.01 
  23   11:50   0.31   39.6    94    2.0   359     4.0   958.8    0.00 
  23   12:00   0.17   40.0    93    1.4   322     4.8   958.7    0.00 
  23   12:10   0.49   40.5    92    1.4   351     4.8   958.5    0.00 
  23   12:20   0.29   41.6    88    2.3   322     4.7   958.3    0.00 
  23   12:30   0.19   41.4    90    0.9   348     2.6   958.3    0.00 
  23   12:40   0.10   41.7    90    0.2   324     1.4   958.2    0.00 
  23   12:50   0.19   41.8    92    0.5    80     1.7   958.2    0.00 
  23   13:00   0.25   42.3    91    0.4    74     1.7   957.9    0.00 
  23   13:10   0.24   42.4    92    1.3   107     2.3   957.8    0.00 

Return to Angelo Coast Range Reserve graphs page.


Western Regional Climate Center,wrcc@dri.edu